Time;durP1;ratioP1;P1;durP2;ratioP2;P2;SDS_P1;SDS_P2;PMS_P1;PMS_P2;Temp;Humidity;BMP_temperature;BMP_pressure;BME280_temperature;BME280_humidity;BME280_pressure;Samples;Min_cycle;Max_cycle;Signal;HPM_P1;HPM_P2
2023/07/07 00:02:32;;;;;;;14.82;8.68;;;;;;;;;;8445217;28;20060;-93
2023/07/07 00:06:35;;;;;;;20.52;8.45;;;;;;;;;;8443885;28;20448;-91
2023/07/07 00:10:38;;;;;;;13.15;7.85;;;;;;;;;;8445748;28;20065;-92
2023/07/07 00:14:42;;;;;;;16.35;8.63;;;;;;;;;;8446934;28;20044;-88
2023/07/07 00:18:46;;;;;;;13.65;8.32;;;;;;;;;;8438026;28;20036;-93
2023/07/07 00:22:49;;;;;;;15.40;8.73;;;;;;;;;;8439456;28;20173;-84
2023/07/07 00:26:52;;;;;;;15.80;9.25;;;;;;;;;;8441704;28;20040;-93
2023/07/07 00:30:56;;;;;;;16.85;8.95;;;;;;;;;;8449345;28;20533;-92
2023/07/07 00:34:59;;;;;;;14.95;8.70;;;;;;;;;;8441210;28;20525;-92
2023/07/07 00:39:01;;;;;;;15.90;8.98;;;;;;;;;;8425956;28;20051;-94
2023/07/07 00:43:11;;;;;;;13.40;7.85;;;;;;;;;;8417077;28;20044;-90
2023/07/07 00:47:15;;;;;;;14.65;8.07;;;;;;;;;;8443788;28;20058;-93
2023/07/07 00:51:23;;;;;;;13.90;8.57;;;;;;;;;;8435412;28;20044;-87
2023/07/07 00:55:31;;;;;;;13.45;8.88;;;;;;;;;;8435701;28;20054;-83
2023/07/07 00:59:36;;;;;;;14.73;8.32;;;;;;;;;;8442311;28;20054;-83
2023/07/07 01:03:43;;;;;;;15.68;8.93;;;;;;;;;;8439932;28;20130;-90
2023/07/07 01:07:51;;;;;;;16.10;8.30;;;;;;;;;;8447751;28;20047;-88
2023/07/07 01:11:54;;;;;;;16.60;8.50;;;;;;;;;;8410238;28;20071;-92
2023/07/07 01:16:04;;;;;;;14.18;8.27;;;;;;;;;;8437820;28;20143;-92
2023/07/07 01:20:18;;;;;;;13.80;8.60;;;;;;;;;;8444058;28;20047;-91
2023/07/07 01:24:39;;;;;;;16.60;8.48;;;;;;;;;;8447917;28;20430;-92
2023/07/07 01:29:20;;;;;;;14.57;7.88;;;;;;;;;;8436686;28;20123;-86
2023/07/07 01:33:28;;;;;;;17.65;9.43;;;;;;;;;;8420245;28;20052;-83
2023/07/07 01:37:31;;;;;;;14.77;8.27;;;;;;;;;;8436609;28;20052;-85
2023/07/07 01:41:41;;;;;;;13.38;7.97;;;;;;;;;;8421438;28;20132;-83
2023/07/07 01:45:48;;;;;;;13.90;8.27;;;;;;;;;;8440513;28;20046;-86
2023/07/07 01:49:57;;;;;;;16.27;7.63;;;;;;;;;;8434434;28;20119;-89
2023/07/07 01:54:01;;;;;;;12.95;7.10;;;;;;;;;;8432602;28;20084;-92
2023/07/07 01:58:06;;;;;;;12.05;7.53;;;;;;;;;;8442313;28;20043;-93
2023/07/07 02:02:10;;;;;;;17.40;7.43;;;;;;;;;;8437579;28;20088;-93
2023/07/07 02:06:14;;;;;;;12.40;7.60;;;;;;;;;;8441916;28;20487;-90
2023/07/07 02:10:16;;;;;;;10.57;6.70;;;;;;;;;;8436405;28;20043;-89
2023/07/07 02:14:20;;;;;;;12.15;7.38;;;;;;;;;;8670166;22;20188;-82
2023/07/07 02:18:26;;;;;;;13.77;7.60;;;;;;;;;;8425121;28;20105;-92
2023/07/07 02:22:30;;;;;;;14.15;7.30;;;;;;;;;;8425178;28;20040;-86
2023/07/07 02:26:33;;;;;;;12.05;7.55;;;;;;;;;;8425192;28;20044;-92
2023/07/07 02:30:37;;;;;;;13.40;7.45;;;;;;;;;;8424229;28;20050;-84
2023/07/07 02:34:47;;;;;;;13.80;7.95;;;;;;;;;;8422501;28;20052;-90
2023/07/07 02:38:53;;;;;;;13.20;7.45;;;;;;;;;;8426238;28;20134;-88
2023/07/07 02:42:56;;;;;;;12.73;8.07;;;;;;;;;;8430087;28;20073;-87
2023/07/07 02:46:58;;;;;;;13.63;7.47;;;;;;;;;;8421728;28;20555;-88
2023/07/07 02:51:04;;;;;;;11.63;7.70;;;;;;;;;;8424279;28;20048;-83
2023/07/07 02:55:09;;;;;;;10.73;6.85;;;;;;;;;;8422314;28;20126;-91
2023/07/07 02:59:11;;;;;;;18.83;7.80;;;;;;;;;;8425045;28;20044;-91
2023/07/07 03:03:15;;;;;;;12.98;6.90;;;;;;;;;;8422786;28;20101;-86
2023/07/07 03:07:17;;;;;;;11.35;7.00;;;;;;;;;;8424272;28;20089;-91
2023/07/07 03:11:24;;;;;;;11.05;6.47;;;;;;;;;;8414604;28;20056;-85
2023/07/07 03:15:29;;;;;;;13.20;7.15;;;;;;;;;;8419796;28;20036;-89
2023/07/07 03:19:32;;;;;;;12.02;7.40;;;;;;;;;;8424066;28;20052;-91
2023/07/07 03:23:36;;;;;;;12.85;7.03;;;;;;;;;;8422537;28;20048;-90
2023/07/07 03:27:40;;;;;;;14.30;6.88;;;;;;;;;;8423505;28;20120;-90
2023/07/07 03:31:43;;;;;;;12.20;6.75;;;;;;;;;;8423389;28;21673;-87
2023/07/07 03:35:46;;;;;;;11.60;6.95;;;;;;;;;;8426686;28;20048;-85
2023/07/07 03:39:49;;;;;;;10.23;6.28;;;;;;;;;;8426061;28;20044;-89
2023/07/07 03:43:55;;;;;;;10.27;6.63;;;;;;;;;;8420878;28;20504;-91
2023/07/07 03:47:57;;;;;;;10.50;6.13;;;;;;;;;;8429874;28;20131;-90
2023/07/07 03:52:00;;;;;;;9.25;5.47;;;;;;;;;;8429804;28;20398;-87
2023/07/07 03:56:04;;;;;;;11.05;5.18;;;;;;;;;;8428084;28;20123;-93
2023/07/07 04:00:11;;;;;;;9.20;5.28;;;;;;;;;;8428982;28;20040;-92
2023/07/07 04:04:14;;;;;;;8.75;5.78;;;;;;;;;;8429513;28;20546;-83
2023/07/07 04:08:22;;;;;;;10.25;5.85;;;;;;;;;;8429730;28;20044;-85
2023/07/07 04:12:24;;;;;;;9.13;5.95;;;;;;;;;;8437767;28;20521;-91
2023/07/07 04:16:29;;;;;;;8.55;5.05;;;;;;;;;;8429569;28;20085;-87
2023/07/07 04:20:34;;;;;;;12.32;5.63;;;;;;;;;;8428397;28;20066;-87
2023/07/07 04:24:37;;;;;;;15.50;7.25;;;;;;;;;;8429582;28;20406;-93
2023/07/07 04:28:41;;;;;;;13.25;9.35;;;;;;;;;;8427978;28;20118;-83
2023/07/07 04:32:46;;;;;;;14.18;8.00;;;;;;;;;;8428011;28;20032;-87
2023/07/07 04:36:49;;;;;;;12.73;6.80;;;;;;;;;;8428349;28;20513;-87
2023/07/07 04:40:52;;;;;;;11.20;6.13;;;;;;;;;;8421648;28;20401;-94
2023/07/07 04:44:55;;;;;;;12.57;7.07;;;;;;;;;;8431293;28;20395;-90
2023/07/07 04:49:06;;;;;;;9.38;5.10;;;;;;;;;;8427228;28;20073;-88
2023/07/07 04:53:08;;;;;;;7.93;4.70;;;;;;;;;;8430301;28;20048;-93
2023/07/07 04:57:12;;;;;;;10.82;5.35;;;;;;;;;;8425980;28;20055;-92
2023/07/07 05:01:18;;;;;;;8.20;4.10;;;;;;;;;;8428904;28;20473;-90
2023/07/07 05:05:22;;;;;;;7.55;4.60;;;;;;;;;;8423609;28;20048;-89
2023/07/07 05:09:25;;;;;;;7.97;4.10;;;;;;;;;;8421603;28;20036;-93
2023/07/07 05:13:28;;;;;;;6.05;3.45;;;;;;;;;;8426539;28;20449;-88
2023/07/07 05:17:31;;;;;;;7.28;4.25;;;;;;;;;;8427116;28;20048;-93
2023/07/07 05:21:35;;;;;;;7.10;4.63;;;;;;;;;;8427211;28;20044;-93
2023/07/07 05:25:39;;;;;;;8.77;4.40;;;;;;;;;;8423709;28;20036;-94
2023/07/07 05:29:42;;;;;;;7.20;3.90;;;;;;;;;;8425577;28;20052;-93
2023/07/07 05:33:44;;;;;;;4.65;3.75;;;;;;;;;;8415979;28;20101;-88
2023/07/07 05:37:49;;;;;;;7.60;4.10;;;;;;;;;;8423739;28;20126;-94
2023/07/07 05:41:52;;;;;;;7.70;3.85;;;;;;;;;;8434970;28;20487;-90
2023/07/07 05:45:59;;;;;;;6.47;3.80;;;;;;;;;;8422109;28;20055;-88
2023/07/07 05:50:02;;;;;;;14.18;5.43;;;;;;;;;;8409874;28;20073;-85
2023/07/07 05:54:08;;;;;;;11.93;5.07;;;;;;;;;;8415730;28;20121;-86
2023/07/07 05:58:11;;;;;;;17.23;5.97;;;;;;;;;;8405845;28;20054;-85
2023/07/07 06:02:13;;;;;;;14.43;5.53;;;;;;;;;;8412482;28;20040;-92
2023/07/07 06:06:16;;;;;;;15.88;5.97;;;;;;;;;;8431318;28;20194;-88
2023/07/07 06:10:22;;;;;;;12.52;5.95;;;;;;;;;;8430715;28;20419;-94
2023/07/07 06:14:25;;;;;;;12.10;4.65;;;;;;;;;;8419210;28;20061;-83
2023/07/07 06:18:27;;;;;;;15.45;5.80;;;;;;;;;;8413216;28;20478;-94
2023/07/07 06:22:30;;;;;;;9.15;5.10;;;;;;;;;;8431927;28;20048;-89
2023/07/07 06:26:35;;;;;;;17.08;5.40;;;;;;;;;;8441547;28;20126;-91
2023/07/07 06:30:37;;;;;;;14.90;5.50;;;;;;;;;;8430003;28;20052;-84
2023/07/07 06:34:41;;;;;;;14.35;5.38;;;;;;;;;;8432632;28;20094;-88
2023/07/07 06:38:44;;;;;;;13.73;5.00;;;;;;;;;;8436901;28;20640;-92
2023/07/07 06:42:51;;;;;;;15.43;5.30;;;;;;;;;;8436959;28;20119;-94
2023/07/07 06:46:54;;;;;;;11.45;5.18;;;;;;;;;;8434169;28;20483;-84
2023/07/07 06:50:56;;;;;;;11.35;5.30;;;;;;;;;;8438001;28;20127;-85
2023/07/07 06:55:00;;;;;;;15.73;4.82;;;;;;;;;;8424588;28;20114;-95
2023/07/07 06:59:05;;;;;;;10.10;4.53;;;;;;;;;;8423419;28;20047;-95
2023/07/07 07:03:08;;;;;;;14.10;4.55;;;;;;;;;;8437762;28;20471;-94
2023/07/07 07:07:11;;;;;;;16.67;4.82;;;;;;;;;;8428299;28;20048;-95
2023/07/07 07:11:16;;;;;;;10.75;4.38;;;;;;;;;;8435823;28;20045;-94
2023/07/07 07:15:20;;;;;;;7.85;4.00;;;;;;;;;;8443524;28;20062;-90
2023/07/07 07:19:23;;;;;;;17.13;4.57;;;;;;;;;;8433940;28;20046;-85
2023/07/07 07:23:26;;;;;;;10.10;4.43;;;;;;;;;;8439179;28;20165;-92
2023/07/07 07:27:29;;;;;;;13.75;3.90;;;;;;;;;;8435241;28;20391;-92
2023/07/07 07:31:34;;;;;;;7.07;3.90;;;;;;;;;;8434044;28;20044;-89
2023/07/07 07:35:37;;;;;;;7.82;3.25;;;;;;;;;;8433294;28;20043;-95
2023/07/07 07:39:40;;;;;;;8.18;3.22;;;;;;;;;;8434847;28;20054;-89
2023/07/07 07:43:42;;;;;;;6.63;3.15;;;;;;;;;;8442134;28;20104;-85
2023/07/07 07:47:47;;;;;;;8.00;3.08;;;;;;;;;;8423575;28;20228;-87
2023/07/07 07:51:50;;;;;;;6.45;3.28;;;;;;;;;;8423314;28;20048;-89
2023/07/07 07:55:53;;;;;;;5.90;2.80;;;;;;;;;;8423191;28;20510;-90
2023/07/07 07:59:56;;;;;;;5.63;3.22;;;;;;;;;;8424298;28;20747;-90
2023/07/07 08:04:00;;;;;;;6.63;2.85;;;;;;;;;;8430469;28;20479;-83
2023/07/07 08:08:04;;;;;;;5.18;2.72;;;;;;;;;;8423516;28;20454;-89
2023/07/07 08:12:09;;;;;;;6.18;2.47;;;;;;;;;;8433064;28;20067;-89
2023/07/07 08:16:13;;;;;;;4.13;2.33;;;;;;;;;;8431032;28;20411;-92
2023/07/07 08:20:21;;;;;;;3.78;2.47;;;;;;;;;;8436960;28;20121;-83
2023/07/07 08:24:24;;;;;;;4.60;2.58;;;;;;;;;;8445095;28;20055;-89
2023/07/07 08:28:27;;;;;;;4.72;2.67;;;;;;;;;;8444350;28;20051;-87
2023/07/07 08:32:31;;;;;;;5.82;2.67;;;;;;;;;;8426152;28;20044;-83
2023/07/07 08:36:36;;;;;;;4.28;2.30;;;;;;;;;;8417803;28;20041;-86
2023/07/07 08:40:47;;;;;;;8.07;2.30;;;;;;;;;;8428775;28;20127;-83
2023/07/07 08:44:50;;;;;;;5.82;2.60;;;;;;;;;;8443352;28;20044;-83
2023/07/07 08:49:01;;;;;;;5.43;2.25;;;;;;;;;;8435675;28;20096;-85
2023/07/07 08:53:31;;;;;;;3.50;2.17;;;;;;;;;;8419873;28;20763;-84
2023/07/07 08:57:42;;;;;;;4.15;2.20;;;;;;;;;;8412980;28;20056;-95
2023/07/07 09:01:53;;;;;;;4.03;2.13;;;;;;;;;;8403287;28;20044;-83
2023/07/07 09:06:02;;;;;;;4.22;2.55;;;;;;;;;;8428119;28;20036;-90
2023/07/07 09:10:29;;;;;;;4.43;2.00;;;;;;;;;;8437454;28;20460;-94
2023/07/07 09:14:32;;;;;;;4.30;2.30;;;;;;;;;;8424349;28;20075;-94
2023/07/07 09:18:38;;;;;;;4.22;2.25;;;;;;;;;;8422609;28;20119;-88
2023/07/07 09:22:45;;;;;;;5.35;2.50;;;;;;;;;;8426308;28;20227;-89
2023/07/07 09:26:52;;;;;;;4.80;2.38;;;;;;;;;;8426283;28;20060;-90
2023/07/07 09:30:59;;;;;;;3.90;2.28;;;;;;;;;;8413059;28;20051;-88
2023/07/07 09:35:02;;;;;;;4.63;2.20;;;;;;;;;;8427985;28;20040;-88
2023/07/07 09:39:28;;;;;;;4.90;2.58;;;;;;;;;;8421251;28;20073;-85
2023/07/07 09:43:41;;;;;;;4.65;2.10;;;;;;;;;;8412621;28;20040;-83
2023/07/07 09:47:58;;;;;;;4.38;2.10;;;;;;;;;;8421687;28;20040;-89
2023/07/07 09:52:08;;;;;;;3.38;2.05;;;;;;;;;;8415694;28;20039;-88
2023/07/07 09:56:14;;;;;;;4.30;2.45;;;;;;;;;;8424081;28;20055;-85
2023/07/07 10:00:20;;;;;;;6.15;2.50;;;;;;;;;;8427466;28;20040;-92
2023/07/07 10:04:25;;;;;;;5.25;2.30;;;;;;;;;;8430165;28;20040;-91
2023/07/07 10:08:29;;;;;;;6.82;2.13;;;;;;;;;;8429504;28;20039;-85
2023/07/07 10:12:31;;;;;;;5.25;2.50;;;;;;;;;;8429549;28;20063;-89
2023/07/07 10:16:47;;;;;;;6.15;2.10;;;;;;;;;;8424349;28;20127;-89
2023/07/07 10:20:50;;;;;;;4.28;2.33;;;;;;;;;;8424453;28;20471;-85
2023/07/07 10:24:53;;;;;;;5.05;2.80;;;;;;;;;;8426868;28;20161;-91
2023/07/07 10:29:00;;;;;;;4.95;2.40;;;;;;;;;;8424725;28;20449;-88
2023/07/07 10:33:04;;;;;;;6.45;2.63;;;;;;;;;;8413807;28;20078;-90
2023/07/07 10:37:19;;;;;;;5.95;2.42;;;;;;;;;;8411578;28;20109;-84
2023/07/07 10:41:22;;;;;;;4.05;2.22;;;;;;;;;;8423451;28;20052;-88
2023/07/07 10:45:25;;;;;;;3.60;2.40;;;;;;;;;;8426067;28;20044;-88
2023/07/07 10:49:31;;;;;;;3.78;2.05;;;;;;;;;;8426139;28;20412;-86
2023/07/07 10:53:49;;;;;;;4.90;2.38;;;;;;;;;;8426626;28;20051;-83
2023/07/07 10:58:09;;;;;;;3.45;2.20;;;;;;;;;;8430098;28;20078;-83
2023/07/07 11:02:36;;;;;;;4.60;2.33;;;;;;;;;;8425761;28;20551;-89
2023/07/07 11:06:51;;;;;;;2.90;1.92;;;;;;;;;;8420121;28;20075;-88
2023/07/07 11:11:17;;;;;;;3.40;2.03;;;;;;;;;;8425893;28;20044;-90
2023/07/07 11:15:41;;;;;;;4.53;2.30;;;;;;;;;;8426192;28;20143;-89
2023/07/07 11:20:10;;;;;;;3.20;2.03;;;;;;;;;;8416544;28;20529;-88
2023/07/07 11:24:22;;;;;;;3.92;2.33;;;;;;;;;;8405158;28;20415;-84
2023/07/07 11:28:36;;;;;;;4.53;2.60;;;;;;;;;;8435724;28;20051;-84
2023/07/07 11:32:46;;;;;;;4.55;2.40;;;;;;;;;;8428566;28;20044;-89
2023/07/07 11:36:58;;;;;;;3.83;2.15;;;;;;;;;;8428470;28;20064;-84
2023/07/07 11:41:20;;;;;;;3.47;2.40;;;;;;;;;;8426108;28;20064;-88
2023/07/07 11:45:32;;;;;;;6.18;2.60;;;;;;;;;;8427274;28;20498;-89
2023/07/07 11:49:49;;;;;;;3.28;2.20;;;;;;;;;;8439205;28;20050;-91
2023/07/07 11:54:14;;;;;;;4.72;2.15;;;;;;;;;;8429040;28;20530;-84
2023/07/07 11:58:30;;;;;;;4.45;2.00;;;;;;;;;;8447352;28;20067;-89
2023/07/07 12:02:42;;;;;;;3.70;2.20;;;;;;;;;;8434283;28;20059;-86
2023/07/07 12:06:51;;;;;;;5.72;2.30;;;;;;;;;;8414321;28;20064;-84
2023/07/07 12:10:57;;;;;;;4.22;2.30;;;;;;;;;;8428600;28;20131;-88
2023/07/07 12:15:06;;;;;;;3.65;2.30;;;;;;;;;;8433003;28;20062;-88
2023/07/07 12:19:20;;;;;;;4.03;2.08;;;;;;;;;;8433407;28;20075;-87
2023/07/07 12:23:29;;;;;;;5.60;2.35;;;;;;;;;;8433605;28;20048;-86
2023/07/07 12:27:36;;;;;;;4.75;2.38;;;;;;;;;;8432255;28;20048;-83
2023/07/07 12:31:41;;;;;;;4.65;2.70;;;;;;;;;;8432212;28;20036;-86
2023/07/07 12:35:48;;;;;;;6.57;2.65;;;;;;;;;;8431944;28;20051;-90
2023/07/07 12:39:54;;;;;;;4.32;2.35;;;;;;;;;;8432298;28;20036;-86
2023/07/07 12:43:59;;;;;;;4.80;2.38;;;;;;;;;;8431349;28;20131;-86
2023/07/07 12:48:06;;;;;;;3.25;2.13;;;;;;;;;;8414605;28;20569;-89
2023/07/07 12:52:13;;;;;;;4.07;2.25;;;;;;;;;;8432184;28;20044;-89
2023/07/07 12:56:19;;;;;;;4.82;2.70;;;;;;;;;;8421939;28;20083;-89
2023/07/07 13:00:29;;;;;;;4.82;2.90;;;;;;;;;;8430933;28;20044;-90
2023/07/07 13:04:42;;;;;;;7.32;2.55;;;;;;;;;;8445002;28;20108;-83
2023/07/07 13:08:45;;;;;;;6.13;2.70;;;;;;;;;;8434054;28;20389;-88
2023/07/07 13:12:49;;;;;;;6.13;2.38;;;;;;;;;;8431574;28;20127;-88
2023/07/07 13:16:51;;;;;;;3.97;2.30;;;;;;;;;;8431137;28;20043;-89
2023/07/07 13:20:58;;;;;;;5.22;2.38;;;;;;;;;;8430458;28;20040;-84
2023/07/07 13:25:07;;;;;;;2.85;2.00;;;;;;;;;;8424088;28;20075;-86
2023/07/07 13:29:10;;;;;;;4.72;2.15;;;;;;;;;;8435777;28;20111;-84
2023/07/07 13:33:14;;;;;;;5.78;2.47;;;;;;;;;;8430900;28;20044;-89
2023/07/07 13:37:18;;;;;;;4.95;2.00;;;;;;;;;;8431000;28;20050;-85
2023/07/07 13:41:22;;;;;;;5.07;2.00;;;;;;;;;;8430821;28;20451;-85
2023/07/07 13:45:25;;;;;;;3.80;2.53;;;;;;;;;;8431025;28;20540;-87
2023/07/07 13:49:32;;;;;;;4.53;2.10;;;;;;;;;;8432793;28;20055;-90
2023/07/07 13:53:37;;;;;;;3.55;2.35;;;;;;;;;;8420033;28;20040;-86
2023/07/07 13:57:40;;;;;;;3.50;2.10;;;;;;;;;;8429176;28;20118;-86
2023/07/07 14:01:44;;;;;;;6.43;2.15;;;;;;;;;;8430085;28;20094;-85
2023/07/07 14:05:52;;;;;;;4.20;2.28;;;;;;;;;;8438853;28;20048;-85
2023/07/07 14:09:58;;;;;;;3.55;1.80;;;;;;;;;;8415793;28;20460;-87
2023/07/07 14:14:02;;;;;;;6.00;2.40;;;;;;;;;;8427611;28;20052;-87
2023/07/07 14:18:10;;;;;;;3.00;2.30;;;;;;;;;;8428817;28;20040;-87
2023/07/07 14:22:13;;;;;;;5.60;2.20;;;;;;;;;;8429459;28;20159;-84
2023/07/07 14:26:22;;;;;;;2.90;2.10;;;;;;;;;;8429327;28;20043;-85
2023/07/07 14:30:26;;;;;;;2.50;1.88;;;;;;;;;;8429920;28;20399;-88
2023/07/07 14:34:28;;;;;;;4.20;2.00;;;;;;;;;;8428925;28;20060;-83
2023/07/07 14:38:34;;;;;;;2.95;1.92;;;;;;;;;;8429346;28;20059;-87
2023/07/07 14:42:50;;;;;;;2.90;1.90;;;;;;;;;;8429118;28;20119;-88
2023/07/07 14:46:53;;;;;;;2.80;2.10;;;;;;;;;;8429198;28;20064;-86
2023/07/07 14:51:08;;;;;;;3.03;1.90;;;;;;;;;;8428180;28;20557;-87
2023/07/07 14:55:13;;;;;;;4.10;2.15;;;;;;;;;;8429444;28;20035;-88
2023/07/07 14:59:21;;;;;;;2.70;1.85;;;;;;;;;;8428379;28;20047;-85
2023/07/07 15:03:34;;;;;;;2.63;1.83;;;;;;;;;;8415486;28;20048;-84
2023/07/07 15:07:37;;;;;;;4.82;2.05;;;;;;;;;;8429478;28;20467;-87
2023/07/07 15:11:40;;;;;;;3.88;2.08;;;;;;;;;;8427186;28;20078;-88
2023/07/07 15:15:48;;;;;;;4.72;1.92;;;;;;;;;;8427955;28;20090;-87
2023/07/07 15:19:51;;;;;;;4.07;1.85;;;;;;;;;;8428416;28;20051;-89
2023/07/07 15:23:54;;;;;;;3.17;1.95;;;;;;;;;;8427997;28;20119;-86
2023/07/07 15:27:57;;;;;;;2.05;1.60;;;;;;;;;;8428643;28;20044;-86
2023/07/07 15:32:01;;;;;;;4.65;2.08;;;;;;;;;;8435437;28;20455;-87
2023/07/07 15:36:04;;;;;;;6.00;1.80;;;;;;;;;;8435137;28;20142;-86
2023/07/07 15:40:15;;;;;;;2.53;1.80;;;;;;;;;;8434836;28;20051;-84
2023/07/07 15:44:18;;;;;;;2.92;1.98;;;;;;;;;;8435370;28;20044;-87
2023/07/07 15:48:23;;;;;;;4.43;2.05;;;;;;;;;;8434666;28;20052;-87
2023/07/07 15:52:26;;;;;;;3.00;2.10;;;;;;;;;;8434489;28;20119;-84
2023/07/07 15:56:31;;;;;;;4.40;1.80;;;;;;;;;;8434121;28;20119;-85
2023/07/07 16:00:35;;;;;;;9.93;2.10;;;;;;;;;;8424399;28;20135;-84
2023/07/07 16:04:40;;;;;;;4.78;2.00;;;;;;;;;;8432900;28;20040;-84
2023/07/07 16:08:43;;;;;;;3.25;2.10;;;;;;;;;;8434161;28;20126;-87
2023/07/07 16:12:46;;;;;;;4.00;2.15;;;;;;;;;;8433327;28;20059;-89
2023/07/07 16:16:49;;;;;;;2.97;2.00;;;;;;;;;;8433408;28;20520;-88
2023/07/07 16:20:56;;;;;;;2.47;1.80;;;;;;;;;;8431293;28;20060;-86
2023/07/07 16:24:59;;;;;;;2.53;1.88;;;;;;;;;;8430051;28;20044;-87
2023/07/07 16:29:02;;;;;;;2.33;1.90;;;;;;;;;;8431401;28;20040;-87
2023/07/07 16:33:05;;;;;;;3.30;1.88;;;;;;;;;;8432721;28;20467;-87
2023/07/07 16:37:13;;;;;;;2.33;1.60;;;;;;;;;;8433126;28;20135;-86
2023/07/07 16:41:19;;;;;;;2.75;1.83;;;;;;;;;;8432732;28;20403;-84
2023/07/07 16:45:22;;;;;;;3.70;1.98;;;;;;;;;;8432541;28;20479;-85
2023/07/07 16:49:25;;;;;;;5.90;1.92;;;;;;;;;;8431104;28;20132;-86
2023/07/07 16:53:30;;;;;;;5.82;2.35;;;;;;;;;;8430783;28;20044;-86
2023/07/07 16:57:33;;;;;;;3.03;1.90;;;;;;;;;;8430901;28;20050;-84
2023/07/07 17:01:36;;;;;;;3.67;2.00;;;;;;;;;;8431804;28;20581;-83
2023/07/07 17:05:38;;;;;;;1.90;1.70;;;;;;;;;;8431863;28;20079;-83
2023/07/07 17:09:43;;;;;;;3.88;1.98;;;;;;;;;;8432190;28;20050;-86
2023/07/07 17:13:46;;;;;;;2.95;1.80;;;;;;;;;;8432112;28;20155;-83
2023/07/07 17:17:49;;;;;;;3.75;1.60;;;;;;;;;;8432567;28;20464;-88
2023/07/07 17:21:52;;;;;;;3.78;2.05;;;;;;;;;;8431667;28;20044;-83
2023/07/07 17:25:56;;;;;;;6.32;1.70;;;;;;;;;;8430874;28;20044;-88
2023/07/07 17:29:59;;;;;;;2.85;1.75;;;;;;;;;;8431807;28;20166;-87
2023/07/07 17:34:02;;;;;;;3.45;1.60;;;;;;;;;;8434571;28;20387;-85
2023/07/07 17:38:11;;;;;;;4.60;2.03;;;;;;;;;;8427954;28;20072;-88
2023/07/07 17:42:17;;;;;;;9.32;2.10;;;;;;;;;;8428567;28;20043;-83
2023/07/07 17:46:29;;;;;;;4.00;2.03;;;;;;;;;;8429076;28;20507;-87
2023/07/07 17:50:39;;;;;;;2.40;1.90;;;;;;;;;;8416425;28;20051;-88
2023/07/07 17:54:42;;;;;;;3.67;1.95;;;;;;;;;;8429850;28;20047;-86
2023/07/07 17:58:47;;;;;;;3.65;2.13;;;;;;;;;;8430613;28;20051;-87
2023/07/07 18:02:50;;;;;;;5.53;1.80;;;;;;;;;;8430779;28;20484;-83
2023/07/07 18:06:55;;;;;;;4.45;2.05;;;;;;;;;;8430544;28;20048;-85
2023/07/07 18:10:58;;;;;;;5.20;2.20;;;;;;;;;;8429480;28;20122;-87
2023/07/07 18:15:02;;;;;;;4.32;2.00;;;;;;;;;;8428998;28;20056;-88
2023/07/07 18:19:12;;;;;;;4.68;2.30;;;;;;;;;;8428326;28;20044;-87
2023/07/07 18:23:15;;;;;;;3.22;2.22;;;;;;;;;;8428419;28;20063;-86
2023/07/07 18:27:18;;;;;;;2.85;2.35;;;;;;;;;;8428380;28;20146;-89
2023/07/07 18:31:28;;;;;;;5.05;2.42;;;;;;;;;;8429551;28;20039;-85
2023/07/07 18:35:32;;;;;;;5.13;2.58;;;;;;;;;;8429318;28;20044;-88
2023/07/07 18:39:35;;;;;;;5.93;3.35;;;;;;;;;;8429519;28;20157;-87
2023/07/07 18:43:38;;;;;;;6.95;4.20;;;;;;;;;;8429240;28;20066;-84
2023/07/07 18:47:43;;;;;;;4.43;2.97;;;;;;;;;;8429250;28;20096;-86
2023/07/07 18:51:46;;;;;;;6.28;3.28;;;;;;;;;;8429246;28;20177;-82
2023/07/07 18:55:49;;;;;;;4.93;3.00;;;;;;;;;;8429324;28;20130;-88
2023/07/07 18:59:52;;;;;;;5.95;3.25;;;;;;;;;;8429268;28;20051;-86
2023/07/07 19:03:56;;;;;;;7.28;3.45;;;;;;;;;;8428801;28;20127;-87
2023/07/07 19:07:59;;;;;;;7.32;3.13;;;;;;;;;;8428891;28;20040;-86
2023/07/07 19:12:03;;;;;;;5.90;3.30;;;;;;;;;;8429099;28;20410;-85
2023/07/07 19:16:17;;;;;;;4.95;3.38;;;;;;;;;;8428740;28;20047;-84
2023/07/07 19:20:21;;;;;;;5.95;3.40;;;;;;;;;;8428753;28;20131;-82
2023/07/07 19:24:24;;;;;;;5.07;3.70;;;;;;;;;;8428782;28;20130;-86
2023/07/07 19:28:31;;;;;;;5.45;3.83;;;;;;;;;;8428679;28;20044;-87
2023/07/07 19:32:36;;;;;;;6.50;4.10;;;;;;;;;;8428762;28;20059;-84
2023/07/07 19:36:42;;;;;;;7.03;4.03;;;;;;;;;;8414815;28;20048;-86
2023/07/07 19:40:47;;;;;;;9.20;4.85;;;;;;;;;;8429072;28;20399;-86
2023/07/07 19:44:51;;;;;;;8.38;5.07;;;;;;;;;;8428186;28;20040;-82
2023/07/07 19:48:55;;;;;;;6.80;4.30;;;;;;;;;;8428430;28;20044;-88
2023/07/07 19:52:59;;;;;;;7.40;4.53;;;;;;;;;;8428160;28;20071;-86
2023/07/07 19:57:03;;;;;;;5.45;4.05;;;;;;;;;;8428312;28;20166;-85
2023/07/07 20:01:11;;;;;;;7.25;4.75;;;;;;;;;;8428068;28;20127;-86
2023/07/07 20:05:15;;;;;;;16.33;8.95;;;;;;;;;;8428122;28;20491;-86
2023/07/07 20:09:23;;;;;;;19.25;5.28;;;;;;;;;;8428090;28;20127;-82
2023/07/07 20:13:26;;;;;;;9.00;5.18;;;;;;;;;;8427983;28;20044;-86
2023/07/07 20:17:30;;;;;;;7.93;5.60;;;;;;;;;;8431449;28;20044;-86
2023/07/07 20:21:33;;;;;;;8.85;5.03;;;;;;;;;;8433701;28;20127;-87
2023/07/07 20:25:38;;;;;;;9.38;5.70;;;;;;;;;;8434014;28;20536;-86
2023/07/07 20:29:44;;;;;;;8.63;5.40;;;;;;;;;;8433793;28;20040;-83
2023/07/07 20:33:48;;;;;;;9.20;5.82;;;;;;;;;;8433715;28;20415;-86
2023/07/07 20:37:52;;;;;;;9.95;6.13;;;;;;;;;;8433192;28;20411;-85
2023/07/07 20:41:56;;;;;;;8.02;5.47;;;;;;;;;;8433329;28;20465;-82
2023/07/07 20:45:59;;;;;;;8.13;5.78;;;;;;;;;;8433088;28;20418;-82
2023/07/07 20:50:02;;;;;;;9.68;5.85;;;;;;;;;;8432131;28;20075;-84
2023/07/07 20:54:05;;;;;;;9.23;5.57;;;;;;;;;;8433090;28;20128;-83
2023/07/07 20:58:12;;;;;;;8.93;6.13;;;;;;;;;;8429315;28;20046;-84
2023/07/07 21:02:15;;;;;;;8.18;6.05;;;;;;;;;;8423543;28;20052;-84
2023/07/07 21:06:20;;;;;;;9.80;6.10;;;;;;;;;;8432302;28;20040;-82
2023/07/07 21:10:25;;;;;;;7.05;6.03;;;;;;;;;;8432171;28;20147;-86
2023/07/07 21:14:29;;;;;;;7.85;6.25;;;;;;;;;;8431863;28;20056;-82
2023/07/07 21:18:32;;;;;;;8.38;6.30;;;;;;;;;;8431855;28;20067;-87
2023/07/07 21:22:35;;;;;;;9.00;6.30;;;;;;;;;;8431804;28;20449;-86
2023/07/07 21:26:38;;;;;;;8.20;5.95;;;;;;;;;;8431623;28;20130;-81
2023/07/07 21:30:43;;;;;;;8.65;6.38;;;;;;;;;;8431651;28;20158;-87
2023/07/07 21:34:46;;;;;;;7.65;5.93;;;;;;;;;;8431433;28;20048;-86
2023/07/07 21:38:50;;;;;;;13.50;7.40;;;;;;;;;;8416543;28;20046;-85
2023/07/07 21:42:52;;;;;;;10.07;6.45;;;;;;;;;;8431795;28;20495;-84
2023/07/07 21:46:59;;;;;;;8.27;6.38;;;;;;;;;;8429598;28;20109;-90
2023/07/07 21:51:01;;;;;;;11.02;6.95;;;;;;;;;;8429764;28;20518;-86
2023/07/07 21:55:05;;;;;;;11.20;6.85;;;;;;;;;;8430823;28;20131;-92
2023/07/07 21:59:18;;;;;;;8.95;6.75;;;;;;;;;;8429895;28;20048;-88
2023/07/07 22:03:22;;;;;;;9.52;6.97;;;;;;;;;;8426823;28;20115;-84
2023/07/07 22:07:25;;;;;;;13.30;6.78;;;;;;;;;;8428948;28;20063;-85
2023/07/07 22:11:28;;;;;;;13.05;7.82;;;;;;;;;;8428911;28;20051;-87
2023/07/07 22:15:31;;;;;;;11.77;7.50;;;;;;;;;;8428097;28;20089;-86
2023/07/07 22:19:35;;;;;;;10.45;7.65;;;;;;;;;;8422308;28;20048;-83
2023/07/07 22:23:38;;;;;;;10.43;7.30;;;;;;;;;;8427300;28;20444;-84
2023/07/07 22:27:41;;;;;;;9.52;7.07;;;;;;;;;;8430011;28;20048;-90
2023/07/07 22:31:44;;;;;;;9.60;7.15;;;;;;;;;;8429902;28;20067;-89
2023/07/07 22:35:49;;;;;;;19.52;8.43;;;;;;;;;;8429665;28;20048;-90
2023/07/07 22:39:52;;;;;;;9.20;7.30;;;;;;;;;;8420809;28;20059;-89
2023/07/07 22:43:55;;;;;;;11.27;7.68;;;;;;;;;;8429275;28;20514;-90
2023/07/07 22:47:58;;;;;;;9.65;7.65;;;;;;;;;;8428915;28;20067;-88
2023/07/07 22:52:02;;;;;;;11.20;7.25;;;;;;;;;;8429296;28;20039;-88
2023/07/07 22:56:21;;;;;;;9.95;7.55;;;;;;;;;;8428778;28;20115;-89
2023/07/07 23:00:26;;;;;;;11.65;7.95;;;;;;;;;;8409792;28;20048;-89
2023/07/07 23:04:28;;;;;;;13.48;8.45;;;;;;;;;;8429058;28;20044;-84
2023/07/07 23:08:33;;;;;;;11.35;7.50;;;;;;;;;;8429012;28;20058;-89
2023/07/07 23:12:35;;;;;;;13.23;9.63;;;;;;;;;;8428900;28;20131;-89
2023/07/07 23:16:38;;;;;;;11.38;8.07;;;;;;;;;;8429309;28;20052;-84
2023/07/07 23:20:41;;;;;;;11.77;7.93;;;;;;;;;;8428364;28;20394;-85
2023/07/07 23:24:45;;;;;;;11.90;8.52;;;;;;;;;;8429175;28;20482;-85
2023/07/07 23:28:48;;;;;;;12.60;8.25;;;;;;;;;;8428329;28;20072;-88
2023/07/07 23:32:51;;;;;;;14.23;8.68;;;;;;;;;;8427532;28;20497;-87
2023/07/07 23:36:54;;;;;;;12.13;8.77;;;;;;;;;;8429427;28;20052;-89
2023/07/07 23:40:58;;;;;;;18.67;9.35;;;;;;;;;;8428013;28;20067;-89
2023/07/07 23:45:01;;;;;;;17.25;10.75;;;;;;;;;;8427188;28;20036;-89
2023/07/07 23:49:13;;;;;;;17.73;10.20;;;;;;;;;;8428441;28;20051;-90
2023/07/07 23:53:18;;;;;;;16.75;10.02;;;;;;;;;;8431334;28;20120;-86
2023/07/07 23:57:22;;;;;;;12.55;9.18;;;;;;;;;;8434427;28;20058;-84
